createdAt,value
2023-04-28T00:01:16.897Z,32.60
2023-04-28T00:06:18.279Z,46.00
2023-04-28T00:11:19.267Z,26.60
2023-04-28T00:16:20.340Z,24.50
2023-04-28T00:21:21.836Z,50.80
2023-04-28T00:26:23.081Z,37.60
2023-04-28T00:31:24.235Z,30.20
2023-04-28T00:36:26.103Z,27.20
2023-04-28T00:41:28.442Z,26.10
2023-04-28T00:46:33.875Z,57.50
2023-04-28T00:51:35.043Z,45.10
2023-04-28T00:56:36.093Z,31.40
2023-04-28T01:01:37.822Z,28.60
2023-04-28T01:06:41.695Z,26.80
2023-04-28T01:11:42.700Z,24.90
2023-04-28T01:16:45.479Z,23.20
2023-04-28T01:21:46.633Z,24.60
2023-04-28T01:26:57.675Z,27.20
2023-04-28T01:31:58.805Z,49.30
2023-04-28T01:37:00.041Z,41.40
2023-04-28T01:42:01.595Z,30.30
2023-04-28T01:47:02.850Z,32.00
2023-04-28T01:52:04.167Z,35.10
2023-04-28T01:57:06.835Z,35.10
2023-04-28T02:02:08.421Z,32.90
2023-04-28T02:07:09.736Z,30.20
2023-04-28T02:12:10.841Z,50.40
2023-04-28T02:17:12.392Z,40.50
2023-04-28T02:22:13.810Z,28.90
2023-04-28T02:27:15.146Z,29.80
2023-04-28T02:32:16.385Z,31.70
2023-04-28T02:37:17.374Z,27.90
2023-04-28T02:42:18.642Z,53.70
2023-04-28T02:47:20.540Z,42.80
2023-04-28T02:52:21.581Z,29.20
2023-04-28T02:57:23.863Z,30.60
2023-04-28T03:02:25.359Z,24.40
2023-04-28T03:07:26.445Z,26.90
2023-04-28T03:12:27.868Z,26.60
2023-04-28T03:17:29.837Z,48.50
2023-04-28T03:22:30.862Z,40.60
2023-04-28T03:27:32.399Z,27.80
2023-04-28T03:32:33.447Z,29.50
2023-04-28T03:37:34.578Z,31.70
2023-04-28T03:42:35.784Z,33.30
2023-04-28T03:47:44.488Z,30.50
2023-04-28T03:52:45.806Z,68.10
2023-04-28T03:57:47.279Z,56.10
2023-04-28T04:02:48.824Z,42.30
2023-04-28T04:07:50.387Z,37.20
2023-04-28T04:12:51.564Z,35.60
2023-04-28T04:17:52.808Z,34.50
2023-04-28T04:22:55.620Z,36.70
2023-04-28T04:27:56.689Z,58.50
2023-04-28T04:32:57.811Z,44.20
2023-04-28T04:38:00.617Z,38.50
2023-04-28T04:43:02.230Z,34.20
2023-04-28T04:48:11.928Z,31.90
2023-04-28T04:53:16.083Z,26.30
2023-04-28T04:58:22.369Z,27.10
2023-04-28T05:03:53.161Z,25.50
2023-04-28T05:08:56.046Z,30.10
2023-04-28T05:13:57.843Z,32.00
2023-04-28T05:18:59.347Z,28.60
2023-04-28T05:24:01.408Z,32.40
2023-04-28T05:29:03.373Z,29.40
2023-04-28T05:34:04.457Z,28.90
2023-04-28T05:39:11.084Z,28.40
2023-04-28T05:44:15.493Z,29.00
2023-04-28T05:49:17.225Z,27.50
2023-04-28T05:54:18.954Z,30.90
2023-04-28T05:59:22.934Z,23.60
2023-04-28T06:04:33.008Z,25.60
2023-04-28T06:09:36.089Z,25.80
2023-04-28T06:14:37.283Z,14.10
2023-04-28T06:19:38.324Z,11.40
2023-04-28T06:24:41.163Z,11.00
2023-04-28T06:29:44.859Z,11.00
2023-04-28T06:34:45.827Z,10.60
2023-04-28T06:39:47.273Z,10.90
2023-04-28T06:44:48.246Z,10.60
2023-04-28T06:49:49.616Z,11.70
2023-04-28T06:54:50.894Z,11.00
2023-04-28T06:59:51.906Z,10.50
2023-04-28T07:04:52.877Z,11.20
2023-04-28T07:09:54.016Z,11.30
2023-04-28T07:14:55.402Z,10.50
2023-04-28T07:19:58.117Z,10.50
2023-04-28T07:24:59.081Z,10.20
2023-04-28T07:30:01.900Z,13.60
2023-04-28T07:35:06.521Z,9.10
2023-04-28T07:40:08.414Z,7.90
2023-04-28T07:45:19.320Z,7.90
2023-04-28T07:50:20.503Z,6.80
2023-04-28T07:55:21.861Z,6.70
2023-04-28T08:00:23.099Z,5.30
2023-04-28T08:05:24.547Z,4.90
2023-04-28T08:10:26.100Z,4.90
2023-04-28T08:15:27.373Z,5.40
2023-04-28T08:20:29.574Z,5.50
2023-04-28T08:25:30.674Z,6.00
2023-04-28T08:30:33.032Z,4.90
2023-04-28T08:35:34.069Z,3.80
2023-04-28T08:40:36.802Z,3.60
2023-04-28T08:45:42.889Z,3.30
2023-04-28T08:50:49.612Z,3.20
2023-04-28T08:55:54.796Z,3.90
2023-04-28T09:00:56.287Z,3.80
2023-04-28T09:05:57.740Z,3.10
2023-04-28T09:11:07.317Z,3.50
2023-04-28T09:16:08.543Z,4.00
2023-04-28T09:21:09.709Z,3.40
2023-04-28T09:26:10.706Z,3.90
2023-04-28T09:31:26.614Z,4.00
2023-04-28T09:36:31.953Z,3.50
2023-04-28T09:41:37.737Z,3.90
2023-04-28T09:46:39.514Z,4.30
2023-04-28T09:51:41.004Z,5.80
2023-04-28T09:56:43.473Z,4.00
2023-04-28T10:01:45.661Z,4.60
2023-04-28T10:06:47.207Z,4.30
2023-04-28T10:11:48.617Z,4.70
2023-04-28T10:16:51.434Z,4.70
2023-04-28T10:22:06.839Z,3.50
2023-04-28T10:27:09.124Z,3.20
2023-04-28T10:32:28.383Z,3.20
2023-04-28T10:38:07.756Z,3.60
2023-04-28T10:43:10.751Z,2.90
2023-04-28T10:53:12.727Z,3.90
2023-04-28T10:58:19.441Z,3.50
2023-04-28T11:03:39.870Z,4.80
2023-04-28T11:08:41.287Z,3.70
2023-04-28T11:13:42.850Z,4.10
2023-04-28T11:18:55.953Z,3.10
2023-04-28T11:23:58.461Z,3.00
2023-04-28T11:28:59.544Z,2.90
2023-04-28T11:34:06.877Z,3.60
2023-04-28T11:39:09.920Z,2.80
2023-04-28T11:44:16.877Z,3.20
2023-04-28T11:49:19.170Z,3.00
2023-04-28T11:54:29.465Z,2.40
2023-04-28T11:59:34.774Z,3.80
2023-04-28T12:04:37.428Z,2.80
2023-04-28T12:09:40.960Z,3.40
2023-04-28T12:14:59.016Z,3.20
2023-04-28T12:20:02.213Z,3.40
2023-04-28T12:25:08.593Z,2.80
2023-04-28T12:30:19.036Z,3.30
2023-04-28T12:35:22.854Z,3.70
2023-04-28T12:40:24.147Z,3.60
2023-04-28T12:45:25.227Z,3.00
2023-04-28T12:50:27.285Z,3.50
2023-04-28T12:55:28.796Z,3.10
2023-04-28T13:00:30.183Z,3.50
2023-04-28T13:05:32.385Z,3.70
2023-04-28T13:10:33.387Z,3.40
2023-04-28T13:15:36.753Z,3.40
2023-04-28T13:20:39.770Z,2.70
2023-04-28T13:25:41.324Z,3.10
2023-04-28T13:30:42.344Z,3.00
2023-04-28T13:35:43.863Z,3.00
2023-04-28T13:40:44.998Z,4.10
2023-04-28T13:45:46.465Z,2.70
2023-04-28T13:50:47.628Z,3.00
2023-04-28T13:55:50.757Z,2.90
2023-04-28T14:00:54.065Z,2.80
2023-04-28T14:05:57.935Z,2.40
2023-04-28T14:10:59.128Z,2.70
2023-04-28T14:16:00.309Z,2.50
2023-04-28T14:21:07.467Z,3.20
2023-04-28T14:26:08.487Z,3.50
2023-04-28T14:31:10.051Z,2.20
2023-04-28T14:36:11.206Z,2.90
2023-04-28T14:41:12.359Z,2.30
2023-04-28T14:46:13.726Z,2.60
2023-04-28T14:51:15.991Z,2.50
2023-04-28T14:56:19.229Z,2.70
2023-04-28T15:01:21.039Z,2.40
2023-04-28T15:06:22.101Z,2.10
2023-04-28T15:11:23.332Z,2.40
2023-04-28T15:16:24.461Z,2.20
2023-04-28T15:21:25.586Z,2.10
2023-04-28T15:26:29.984Z,2.40
2023-04-28T15:31:31.245Z,2.60
2023-04-28T15:36:37.015Z,2.50
2023-04-28T15:41:38.095Z,2.00
2023-04-28T15:46:39.377Z,3.00
2023-04-28T15:51:40.323Z,2.30
2023-04-28T15:56:42.007Z,2.40
2023-04-28T16:01:44.085Z,2.60
2023-04-28T16:06:45.335Z,3.00
2023-04-28T16:11:46.536Z,3.70
2023-04-28T16:16:47.562Z,3.70
2023-04-28T16:21:49.073Z,3.00
2023-04-28T16:26:51.232Z,3.00
2023-04-28T16:31:52.423Z,4.30
2023-04-28T16:36:53.535Z,3.50
2023-04-28T16:41:54.837Z,2.70
2023-04-28T16:47:00.002Z,3.30
2023-04-28T16:52:03.418Z,4.80
2023-04-28T16:57:04.435Z,5.10
2023-04-28T17:02:06.069Z,5.60
2023-04-28T17:07:07.710Z,5.00
2023-04-28T17:12:08.895Z,4.30
2023-04-28T17:17:09.940Z,4.20
2023-04-28T17:22:11.622Z,3.80
2023-04-28T17:27:14.167Z,3.40
2023-04-28T17:32:15.469Z,3.90
2023-04-28T17:37:16.695Z,4.70
2023-04-28T17:42:17.805Z,4.90
2023-04-28T17:47:18.773Z,5.50
2023-04-28T17:52:20.125Z,4.50
2023-04-28T17:57:21.082Z,5.10
2023-04-28T18:02:22.117Z,5.40
2023-04-28T18:07:23.114Z,5.20
2023-04-28T18:12:25.479Z,5.80
2023-04-28T18:17:26.582Z,7.30
2023-04-28T18:22:27.728Z,8.90
2023-04-28T18:27:28.712Z,11.20
2023-04-28T18:32:33.144Z,9.50
2023-04-28T18:37:36.436Z,8.20
2023-04-28T18:42:37.531Z,7.70
2023-04-28T18:47:39.492Z,8.10
2023-04-28T18:52:41.359Z,8.70
2023-04-28T18:57:43.050Z,7.80
2023-04-28T19:02:44.531Z,6.30
2023-04-28T19:07:45.975Z,5.20
2023-04-28T19:12:46.969Z,5.30
2023-04-28T19:17:48.003Z,5.10
2023-04-28T19:22:50.993Z,5.00
2023-04-28T19:27:52.256Z,4.60
2023-04-28T19:32:53.358Z,4.70
2023-04-28T19:37:55.219Z,5.70
2023-04-28T19:43:06.780Z,5.30
2023-04-28T19:48:08.097Z,4.80
2023-04-28T19:53:09.278Z,6.50
2023-04-28T19:58:10.587Z,7.30
2023-04-28T20:03:12.470Z,7.00
2023-04-28T20:08:13.647Z,7.20
2023-04-28T20:13:14.694Z,7.20
2023-04-28T20:18:16.765Z,6.70
2023-04-28T20:23:17.776Z,8.00
2023-04-28T20:28:18.745Z,10.00
2023-04-28T20:33:19.827Z,8.90
2023-04-28T20:38:21.670Z,9.00
2023-04-28T20:43:23.420Z,7.70
2023-04-28T20:48:24.541Z,7.70
2023-04-28T20:53:26.052Z,8.40
2023-04-28T20:58:27.600Z,9.20
2023-04-28T21:03:30.056Z,8.40
2023-04-28T21:08:31.469Z,9.00
2023-04-28T21:13:36.542Z,8.60
2023-04-28T21:18:37.620Z,9.80
2023-04-28T21:23:39.209Z,9.60
2023-04-28T21:28:40.902Z,15.50
2023-04-28T21:33:42.192Z,11.60
2023-04-28T21:38:43.358Z,12.20
2023-04-28T21:43:59.068Z,13.30
2023-04-28T21:49:02.975Z,15.80
2023-04-28T21:54:05.104Z,17.40
2023-04-28T21:59:06.253Z,22.80
2023-04-28T22:04:08.133Z,22.30
2023-04-28T22:09:09.446Z,19.40
2023-04-28T22:14:13.584Z,16.50
2023-04-28T22:19:19.460Z,17.00
2023-04-28T22:24:20.516Z,17.60
2023-04-28T22:29:21.876Z,18.20
2023-04-28T22:34:23.476Z,15.20
2023-04-28T22:39:26.205Z,13.10
2023-04-28T22:44:27.528Z,15.00
2023-04-28T22:49:29.881Z,16.00
2023-04-28T22:54:31.336Z,13.00
2023-04-28T22:59:32.598Z,11.20
2023-04-28T23:04:34.113Z,10.10
2023-04-28T23:09:36.658Z,10.00
2023-04-28T23:14:43.185Z,9.60
2023-04-28T23:19:44.225Z,11.50
2023-04-28T23:24:45.239Z,12.90
2023-04-28T23:29:46.401Z,12.40
2023-04-28T23:34:47.348Z,14.10
2023-04-28T23:39:50.166Z,14.70
2023-04-28T23:44:51.966Z,14.40
2023-04-28T23:50:00.065Z,14.20
2023-04-28T23:55:01.537Z,14.50
